createdAt,value
2018-06-28T00:00:19.634Z,99.99
2018-06-28T00:01:51.207Z,99.99
2018-06-28T00:03:22.782Z,99.99
2018-06-28T00:04:54.351Z,99.99
2018-06-28T00:06:25.923Z,99.99
2018-06-28T00:07:57.796Z,99.99
2018-06-28T00:09:29.068Z,99.99
2018-06-28T00:11:00.640Z,99.99
2018-06-28T00:12:32.213Z,98.96
2018-06-28T00:14:03.785Z,98.58
2018-06-28T00:15:35.357Z,99.34
2018-06-28T00:17:06.929Z,98.48
2018-06-28T00:18:38.504Z,98.86
2018-06-28T00:20:10.073Z,98.67
2018-06-28T00:21:41.647Z,99.25
2018-06-28T00:23:13.217Z,99.99
2018-06-28T00:24:44.789Z,99.05
2018-06-28T00:26:16.464Z,99.05
2018-06-28T00:27:47.939Z,98.19
2018-06-28T00:29:19.507Z,97.81
2018-06-28T00:30:51.083Z,98.10
2018-06-28T00:32:22.751Z,97.33
2018-06-28T00:33:54.224Z,97.24
2018-06-28T00:35:25.796Z,96.47
2018-06-28T00:36:57.368Z,95.75
2018-06-28T00:38:28.940Z,96.66
2018-06-28T00:40:00.513Z,97.24
2018-06-28T00:41:32.085Z,96.66
2018-06-28T00:43:03.657Z,96.18
2018-06-28T00:44:35.380Z,95.65
2018-06-28T00:46:06.802Z,95.65
2018-06-28T00:47:38.375Z,96.13
2018-06-28T00:49:09.945Z,96.27
2018-06-28T00:50:41.518Z,95.26
2018-06-28T00:52:13.090Z,94.49
2018-06-28T00:53:44.664Z,95.36
2018-06-28T00:55:16.237Z,96.85
2018-06-28T00:56:47.806Z,94.88
2018-06-28T00:58:19.380Z,96.18
2018-06-28T00:59:50.951Z,96.47
2018-06-28T01:01:22.523Z,96.47
2018-06-28T01:02:54.447Z,97.81
2018-06-28T01:04:25.671Z,97.24
2018-06-28T01:05:57.240Z,97.33
2018-06-28T01:07:28.813Z,96.56
2018-06-28T01:09:00.535Z,97.91
2018-06-28T01:10:31.958Z,96.85
2018-06-28T01:12:03.530Z,99.05
2018-06-28T01:13:35.103Z,98.10
2018-06-28T01:15:06.675Z,99.44
2018-06-28T01:16:38.247Z,99.77
2018-06-28T01:18:09.820Z,99.49
2018-06-28T01:19:41.391Z,99.49
2018-06-28T01:21:13.064Z,99.58
2018-06-28T01:22:44.536Z,99.49
2018-06-28T01:24:16.111Z,99.96
2018-06-28T01:25:47.680Z,99.39
2018-06-28T01:27:19.253Z,99.96
2018-06-28T01:28:50.825Z,99.99
2018-06-28T01:30:22.397Z,99.99
2018-06-28T01:31:53.975Z,99.99
2018-06-28T01:33:25.544Z,99.99
2018-06-28T01:34:57.116Z,99.99
2018-06-28T01:36:28.686Z,99.82
2018-06-28T01:38:00.260Z,99.99
2018-06-28T01:39:31.931Z,99.99
2018-06-28T01:41:03.408Z,99.99
2018-06-28T01:42:34.975Z,99.99
2018-06-28T01:44:06.547Z,98.29
2018-06-28T01:45:38.126Z,97.91
2018-06-28T01:47:09.724Z,97.61
2018-06-28T01:48:41.262Z,97.33
2018-06-28T01:50:12.840Z,98.00
2018-06-28T01:51:44.407Z,97.24
2018-06-28T01:53:15.978Z,98.19
2018-06-28T01:54:47.552Z,98.19
2018-06-28T01:56:19.129Z,97.24
2018-06-28T01:57:50.794Z,97.28
2018-06-28T01:59:22.266Z,97.19
2018-06-28T02:00:53.839Z,97.24
2018-06-28T02:02:25.411Z,99.25
2018-06-28T02:03:57.082Z,99.99
2018-06-28T02:05:28.554Z,99.99
2018-06-28T02:07:00.126Z,99.99
2018-06-28T02:08:31.698Z,99.99
2018-06-28T02:10:03.420Z,99.99
2018-06-28T02:11:34.841Z,99.99
2018-06-28T02:13:06.417Z,99.99
2018-06-28T02:14:37.986Z,99.99
2018-06-28T02:16:09.657Z,99.82
2018-06-28T02:17:41.128Z,99.82
2018-06-28T02:19:12.700Z,99.99
2018-06-28T02:20:44.274Z,99.99
2018-06-28T02:22:15.843Z,99.99
2018-06-28T02:23:47.416Z,99.99
2018-06-28T02:25:18.988Z,99.99
2018-06-28T02:26:50.558Z,99.99
2018-06-28T02:28:22.129Z,99.99
2018-06-28T02:29:53.702Z,99.99
2018-06-28T02:31:25.273Z,99.99
2018-06-28T02:32:56.848Z,99.99
2018-06-28T02:34:28.616Z,99.99
2018-06-28T02:35:59.988Z,99.99
2018-06-28T02:37:31.559Z,99.99
2018-06-28T02:39:03.132Z,99.99
2018-06-28T02:40:34.854Z,99.99
2018-06-28T02:42:06.274Z,99.99
2018-06-28T02:43:37.845Z,99.99
2018-06-28T02:45:09.416Z,99.99
2018-06-28T02:46:40.994Z,99.96
2018-06-28T02:48:12.560Z,99.99
2018-06-28T02:49:44.131Z,99.99
2018-06-28T02:51:15.702Z,99.99
2018-06-28T02:52:47.374Z,99.99
2018-06-28T02:54:18.845Z,99.99
2018-06-28T02:55:50.416Z,99.99
2018-06-28T02:57:21.989Z,99.99
2018-06-28T02:58:53.559Z,99.99
2018-06-28T03:00:25.131Z,99.99
2018-06-28T03:01:56.702Z,99.99
2018-06-28T03:03:28.273Z,99.99
2018-06-28T03:04:59.946Z,99.99
2018-06-28T03:06:31.418Z,99.99
2018-06-28T03:08:02.988Z,99.99
2018-06-28T03:09:34.560Z,99.99
2018-06-28T03:11:06.435Z,99.99
2018-06-28T03:12:37.702Z,99.99
2018-06-28T03:14:09.274Z,99.99
2018-06-28T03:15:40.846Z,99.99
2018-06-28T03:17:12.416Z,99.99
2018-06-28T03:18:43.987Z,99.99
2018-06-28T03:20:15.561Z,99.99
2018-06-28T03:21:47.132Z,99.99
2018-06-28T03:23:18.700Z,99.99
2018-06-28T03:24:50.272Z,99.99
2018-06-28T03:26:21.843Z,99.99
2018-06-28T03:27:53.414Z,99.99
2018-06-28T03:29:25.086Z,99.99
2018-06-28T03:30:56.579Z,99.99
2018-06-28T03:32:28.127Z,99.99
2018-06-28T03:33:59.698Z,99.99
2018-06-28T03:35:31.370Z,99.99
2018-06-28T03:37:02.841Z,99.99
2018-06-28T03:38:34.412Z,99.99
2018-06-28T03:40:05.982Z,99.99
2018-06-28T03:41:37.703Z,99.99
2018-06-28T03:43:09.131Z,99.99
2018-06-28T03:44:40.696Z,99.99
2018-06-28T03:46:12.267Z,99.99
2018-06-28T03:47:43.938Z,99.99
2018-06-28T03:49:15.409Z,99.99
2018-06-28T03:50:46.980Z,99.99
2018-06-28T03:52:18.552Z,99.99
2018-06-28T03:53:50.122Z,99.99
2018-06-28T03:55:21.693Z,99.99
2018-06-28T03:56:53.264Z,99.99
2018-06-28T03:58:24.836Z,99.99
2018-06-28T03:59:56.406Z,99.99
2018-06-28T04:01:27.978Z,99.99
2018-06-28T04:02:59.547Z,99.99
2018-06-28T04:04:31.118Z,99.99
2018-06-28T04:06:02.939Z,99.99
2018-06-28T04:07:34.265Z,99.99
2018-06-28T04:09:05.830Z,99.99
2018-06-28T04:10:37.401Z,99.99
2018-06-28T04:12:08.971Z,99.99
2018-06-28T04:13:40.544Z,99.99
2018-06-28T04:15:12.115Z,99.99
2018-06-28T04:16:43.737Z,99.99
2018-06-28T04:18:15.255Z,99.99
2018-06-28T04:19:46.825Z,99.99
2018-06-28T04:21:18.395Z,99.99
2018-06-28T04:22:49.966Z,99.99
2018-06-28T04:24:21.636Z,99.99
2018-06-28T04:25:53.107Z,99.99
2018-06-28T04:27:24.701Z,99.99
2018-06-28T04:28:56.251Z,99.99
2018-06-28T04:30:27.818Z,99.99
2018-06-28T04:31:59.388Z,99.99
2018-06-28T04:33:30.959Z,99.99
2018-06-28T04:35:02.529Z,99.99
2018-06-28T04:36:34.099Z,99.99
2018-06-28T04:38:05.670Z,99.99
2018-06-28T04:39:37.240Z,99.99
2018-06-28T04:41:08.810Z,99.99
2018-06-28T04:42:40.481Z,99.99
2018-06-28T04:44:11.953Z,99.99
2018-06-28T04:45:43.521Z,99.99
2018-06-28T04:47:15.091Z,99.99
2018-06-28T04:48:46.661Z,99.99
2018-06-28T04:50:18.232Z,99.99
2018-06-28T04:51:49.802Z,99.99
2018-06-28T04:53:21.372Z,99.99
2018-06-28T04:54:52.943Z,99.99
2018-06-28T04:56:24.514Z,99.99
2018-06-28T04:57:56.083Z,99.99
2018-06-28T04:59:27.658Z,99.99
2018-06-28T05:00:59.325Z,99.99
2018-06-28T05:02:30.799Z,99.99
2018-06-28T05:04:02.367Z,99.99
2018-06-28T05:05:33.937Z,99.99
2018-06-28T05:07:05.652Z,99.99
2018-06-28T05:08:37.078Z,99.99
2018-06-28T05:10:08.648Z,99.99
2018-06-28T05:11:40.219Z,99.99
2018-06-28T05:13:11.789Z,99.99
2018-06-28T05:14:43.360Z,99.99
2018-06-28T05:16:14.930Z,99.99
2018-06-28T05:17:46.501Z,99.99
2018-06-28T05:19:18.171Z,99.99
2018-06-28T05:20:49.647Z,99.99
2018-06-28T05:22:21.211Z,99.99
2018-06-28T05:23:52.781Z,99.99
2018-06-28T05:25:24.355Z,99.99
2018-06-28T05:26:55.922Z,99.99
2018-06-28T05:28:27.492Z,99.99
2018-06-28T05:29:59.068Z,99.99
2018-06-28T05:31:30.633Z,99.99
2018-06-28T05:33:02.206Z,99.99
2018-06-28T05:34:33.838Z,99.99
2018-06-28T05:36:05.344Z,99.99
2018-06-28T05:37:37.165Z,99.99
2018-06-28T05:39:08.484Z,99.99
2018-06-28T05:40:40.055Z,99.99
2018-06-28T05:42:11.625Z,99.99
2018-06-28T05:43:43.195Z,99.99
2018-06-28T05:45:14.766Z,99.99
2018-06-28T05:46:46.336Z,99.99
2018-06-28T05:48:17.907Z,99.99
2018-06-28T05:49:49.481Z,99.99
2018-06-28T05:51:21.047Z,99.99
2018-06-28T05:52:52.640Z,99.99
2018-06-28T05:54:24.189Z,99.99
2018-06-28T05:55:55.858Z,99.99
2018-06-28T05:57:27.329Z,99.99
2018-06-28T05:58:58.899Z,99.99
2018-06-28T06:00:30.473Z,99.99
2018-06-28T06:02:02.041Z,99.99
2018-06-28T06:03:33.691Z,99.99
2018-06-28T06:05:05.181Z,99.99
2018-06-28T06:06:36.752Z,99.99
2018-06-28T06:08:08.422Z,99.99
2018-06-28T06:09:40.020Z,99.99
2018-06-28T06:11:11.463Z,99.99
2018-06-28T06:12:43.033Z,99.99
2018-06-28T06:14:14.705Z,99.99
2018-06-28T06:15:46.174Z,99.99
2018-06-28T06:17:17.748Z,99.99
2018-06-28T06:18:49.316Z,99.99
2018-06-28T06:20:20.946Z,99.99
2018-06-28T06:21:52.457Z,99.99
2018-06-28T06:23:24.026Z,99.99
2018-06-28T06:24:55.600Z,99.99
2018-06-28T06:26:27.167Z,99.99
2018-06-28T06:27:58.737Z,99.99
2018-06-28T06:29:30.475Z,99.99
2018-06-28T06:31:01.879Z,99.99
2018-06-28T06:32:33.549Z,99.99
2018-06-28T06:34:05.019Z,99.99
2018-06-28T06:35:36.591Z,99.99
2018-06-28T06:37:08.160Z,99.99
2018-06-28T06:38:39.835Z,99.99
2018-06-28T06:40:11.300Z,99.99
2018-06-28T06:41:42.870Z,99.99
2018-06-28T06:43:14.442Z,99.99
2018-06-28T06:44:46.012Z,99.99
2018-06-28T06:46:17.581Z,99.99
2018-06-28T06:47:49.150Z,99.99
2018-06-28T06:49:20.721Z,99.99
2018-06-28T06:50:52.392Z,99.99
2018-06-28T06:52:23.862Z,99.99
2018-06-28T06:53:55.432Z,99.99
2018-06-28T06:55:27.002Z,99.99
2018-06-28T06:56:58.573Z,99.99
2018-06-28T06:58:30.142Z,99.99
2018-06-28T07:00:01.714Z,99.99
2018-06-28T07:01:33.282Z,99.99
2018-06-28T07:03:04.852Z,99.99
2018-06-28T07:04:36.422Z,99.99
2018-06-28T07:06:07.993Z,99.99
2018-06-28T07:07:39.563Z,99.99
2018-06-28T07:09:11.383Z,99.99
2018-06-28T07:10:42.703Z,99.99
2018-06-28T07:12:14.274Z,99.99
2018-06-28T07:13:45.844Z,99.99
2018-06-28T07:15:17.414Z,99.99
2018-06-28T07:16:48.984Z,99.99
2018-06-28T07:18:20.685Z,99.99
2018-06-28T07:19:52.125Z,99.99
2018-06-28T07:21:23.696Z,99.99
2018-06-28T07:22:55.361Z,99.99
2018-06-28T07:24:26.836Z,99.99
2018-06-28T07:25:58.407Z,99.99
2018-06-28T07:27:30.077Z,99.99
2018-06-28T07:29:01.553Z,99.99
2018-06-28T07:30:33.119Z,99.99
2018-06-28T07:32:04.689Z,99.99
2018-06-28T07:33:36.261Z,99.99
2018-06-28T07:35:07.830Z,99.99
2018-06-28T07:36:39.401Z,99.99
2018-06-28T07:38:10.971Z,99.99
2018-06-28T07:39:42.641Z,99.99
2018-06-28T07:41:14.112Z,99.99
2018-06-28T07:42:45.682Z,99.99
2018-06-28T07:44:17.252Z,99.99
2018-06-28T07:45:48.927Z,99.99
2018-06-28T07:47:20.399Z,99.99
2018-06-28T07:48:51.963Z,99.99
2018-06-28T07:50:23.534Z,99.99
2018-06-28T07:51:55.254Z,99.99
2018-06-28T07:53:26.674Z,99.99
2018-06-28T07:54:58.246Z,99.99
2018-06-28T07:56:29.815Z,99.99
2018-06-28T07:58:01.385Z,99.99
2018-06-28T07:59:33.118Z,99.99
2018-06-28T08:01:04.526Z,99.99
2018-06-28T08:02:36.130Z,99.99
2018-06-28T08:04:07.771Z,99.99
2018-06-28T08:05:39.237Z,99.99
2018-06-28T08:07:10.808Z,99.99
2018-06-28T08:08:42.378Z,99.99
2018-06-28T08:10:14.052Z,99.99
2018-06-28T08:11:45.518Z,99.99
2018-06-28T08:13:17.091Z,99.99
2018-06-28T08:14:48.661Z,99.99
2018-06-28T08:16:20.229Z,99.99
2018-06-28T08:17:51.805Z,99.99
2018-06-28T08:19:23.369Z,99.99
2018-06-28T08:20:54.940Z,99.99
2018-06-28T08:22:26.610Z,99.99
2018-06-28T08:23:58.080Z,99.99
2018-06-28T08:25:29.650Z,99.99
2018-06-28T08:27:01.296Z,99.99
2018-06-28T08:28:32.792Z,99.99
2018-06-28T08:30:04.362Z,99.99
2018-06-28T08:31:35.932Z,99.99
2018-06-28T08:33:07.504Z,99.99
2018-06-28T08:34:39.072Z,99.99
2018-06-28T08:36:10.715Z,99.99
2018-06-28T08:37:42.213Z,99.99
2018-06-28T08:39:13.784Z,99.99
2018-06-28T08:40:45.454Z,99.99
2018-06-28T08:42:16.924Z,99.99
2018-06-28T08:43:48.497Z,99.99
2018-06-28T08:45:20.068Z,99.99
2018-06-28T08:46:51.785Z,99.99
2018-06-28T08:48:23.205Z,99.99
2018-06-28T08:49:54.776Z,99.99
2018-06-28T08:51:26.345Z,99.99
2018-06-28T08:52:57.917Z,99.99
2018-06-28T08:54:30.338Z,99.99
2018-06-28T08:56:01.058Z,99.99
2018-06-28T08:57:32.655Z,99.99
2018-06-28T08:59:04.297Z,99.99
2018-06-28T09:00:35.767Z,99.99
2018-06-28T09:02:07.337Z,99.99
2018-06-28T09:03:38.907Z,99.99
2018-06-28T09:05:10.479Z,99.99
2018-06-28T09:06:42.049Z,99.99
2018-06-28T09:08:13.644Z,99.99
2018-06-28T09:09:45.189Z,99.99
2018-06-28T09:11:16.759Z,99.99
2018-06-28T09:12:48.329Z,99.99
2018-06-28T09:14:19.899Z,99.99
2018-06-28T09:15:51.469Z,99.99
2018-06-28T09:17:23.140Z,99.99
2018-06-28T09:18:54.611Z,99.99
2018-06-28T09:20:26.180Z,99.99
2018-06-28T09:21:57.750Z,99.99
2018-06-28T09:23:29.471Z,99.99
2018-06-28T09:25:00.891Z,99.99
2018-06-28T09:26:32.462Z,99.99
2018-06-28T09:28:04.032Z,99.99
2018-06-28T09:29:35.602Z,99.99
2018-06-28T09:31:07.173Z,99.99
2018-06-28T09:32:38.743Z,99.99
2018-06-28T09:34:10.313Z,99.99
2018-06-28T09:35:42.041Z,99.99
2018-06-28T09:37:13.454Z,99.99
2018-06-28T09:38:45.025Z,99.99
2018-06-28T09:40:16.595Z,99.99
2018-06-28T09:41:48.167Z,99.99
2018-06-28T09:43:19.735Z,99.99
2018-06-28T09:44:51.306Z,99.99
2018-06-28T09:46:22.877Z,99.99
2018-06-28T09:47:54.447Z,99.99
2018-06-28T09:49:26.018Z,99.99
2018-06-28T09:50:57.592Z,99.99
2018-06-28T09:52:29.362Z,99.99
2018-06-28T09:54:00.830Z,99.99
2018-06-28T09:55:32.301Z,99.99
2018-06-28T09:57:03.876Z,99.99
2018-06-28T09:58:35.443Z,99.99
2018-06-28T10:01:38.587Z,99.99
2018-06-28T10:03:10.157Z,99.99
2018-06-28T10:04:41.764Z,99.99
2018-06-28T10:07:45.575Z,99.99
2018-06-28T10:09:16.439Z,99.99
2018-06-28T10:10:48.010Z,99.99
2018-06-28T10:12:19.785Z,99.99
2018-06-28T10:13:51.254Z,99.99
2018-06-28T10:15:23.257Z,99.99
2018-06-28T10:16:54.295Z,99.99
2018-06-28T10:18:25.868Z,99.99
2018-06-28T10:19:57.642Z,99.99
2018-06-28T10:21:29.214Z,99.99
2018-06-28T10:23:00.788Z,99.99
2018-06-28T10:24:32.747Z,99.99
2018-06-28T10:26:03.726Z,99.99
2018-06-28T10:27:35.309Z,99.99
2018-06-28T10:30:38.972Z,99.99
2018-06-28T10:32:10.113Z,99.99
2018-06-28T10:35:13.371Z,99.99
2018-06-28T10:38:16.503Z,99.99
2018-06-28T10:41:19.646Z,99.99
2018-06-28T10:42:51.015Z,99.99
2018-06-28T10:47:26.173Z,99.99
2018-06-28T10:48:58.239Z,99.99
2018-06-28T10:50:28.933Z,99.99
2018-06-28T10:53:32.018Z,99.99
2018-06-28T10:55:03.591Z,99.99
2018-06-28T10:56:35.368Z,99.99
2018-06-28T10:59:38.334Z,99.99
2018-06-28T11:01:09.878Z,99.99
2018-06-28T11:02:41.754Z,99.99
2018-06-28T11:04:13.132Z,99.99
2018-06-28T11:10:19.470Z,99.99
2018-06-28T11:11:50.888Z,99.99
2018-06-28T11:13:22.483Z,99.99
2018-06-28T11:16:25.637Z,99.82
2018-06-28T11:17:57.174Z,99.73
2018-06-28T11:19:28.746Z,99.25
2018-06-28T11:21:00.522Z,99.44
2018-06-28T11:22:32.427Z,98.29
2018-06-28T11:24:03.770Z,98.58
2018-06-28T11:25:35.038Z,97.86
2018-06-28T11:28:38.284Z,97.47
2018-06-28T11:30:09.872Z,96.89
2018-06-28T11:31:41.331Z,96.94
2018-06-28T11:33:13.439Z,95.84
2018-06-28T11:34:44.479Z,92.81
2018-06-28T11:37:47.649Z,93.48
2018-06-28T11:40:50.810Z,94.26
2018-06-28T11:42:22.381Z,94.11
2018-06-28T11:43:53.929Z,93.05
2018-06-28T11:45:26.042Z,92.08
2018-06-28T11:46:57.342Z,90.98
2018-06-28T11:48:28.661Z,92.29
2018-06-28T11:50:00.233Z,92.96
2018-06-28T11:51:32.184Z,91.46
2018-06-28T11:53:03.739Z,90.75
2018-06-28T11:56:06.751Z,92.43
2018-06-28T11:57:38.149Z,89.39
2018-06-28T11:59:09.895Z,84.41
2018-06-28T12:00:41.805Z,81.04
2018-06-28T12:02:12.846Z,85.00
2018-06-28T12:03:44.424Z,84.18
2018-06-28T12:05:16.423Z,85.14
2018-06-28T12:08:19.360Z,90.36
2018-06-28T12:09:51.041Z,91.52
2018-06-28T12:11:22.319Z,92.09
2018-06-28T12:12:53.893Z,92.96
2018-06-28T12:15:57.264Z,93.24
2018-06-28T12:17:28.628Z,92.76
2018-06-28T12:19:00.827Z,91.36
2018-06-28T12:20:31.782Z,90.41
2018-06-28T12:22:03.356Z,90.79
2018-06-28T12:23:35.613Z,91.08
2018-06-28T12:25:06.753Z,90.50
2018-06-28T12:26:38.088Z,90.55
2018-06-28T12:28:09.718Z,89.92
2018-06-28T12:29:41.771Z,88.32
2018-06-28T12:32:45.029Z,87.85
2018-06-28T12:34:16.279Z,89.10
2018-06-28T12:35:47.596Z,89.10
2018-06-28T12:37:19.656Z,90.36
2018-06-28T12:38:52.434Z,91.32
2018-06-28T12:40:22.278Z,89.54
2018-06-28T12:41:54.488Z,90.45
2018-06-28T12:44:57.060Z,90.07
2018-06-28T12:46:28.645Z,89.06
2018-06-28T12:48:01.074Z,88.91
2018-06-28T12:49:32.044Z,88.33
2018-06-28T12:51:03.519Z,87.56
2018-06-28T12:52:34.894Z,86.26
2018-06-28T12:54:06.673Z,85.49
2018-06-28T12:55:38.057Z,86.60
2018-06-28T12:57:09.930Z,86.07
2018-06-28T12:58:41.407Z,86.07
2018-06-28T13:01:44.464Z,85.97
2018-06-28T13:03:16.466Z,85.24
2018-06-28T13:04:47.714Z,83.64
2018-06-28T13:06:19.291Z,84.03
2018-06-28T13:07:50.670Z,83.41
2018-06-28T13:09:22.268Z,84.33
2018-06-28T13:12:25.400Z,85.20
2018-06-28T13:13:56.979Z,85.78
2018-06-28T13:15:29.091Z,84.18
2018-06-28T13:17:00.742Z,84.03
2018-06-28T13:18:31.840Z,82.78
2018-06-28T13:20:03.415Z,81.62
2018-06-28T13:23:06.456Z,81.43
2018-06-28T13:24:38.068Z,81.72
2018-06-28T13:26:09.606Z,82.05
2018-06-28T13:27:41.184Z,81.27
2018-06-28T13:29:13.066Z,80.69
2018-06-28T13:30:44.341Z,79.10
2018-06-28T13:32:16.481Z,76.82
2018-06-28T13:33:48.251Z,75.99
2018-06-28T13:35:19.382Z,76.59
2018-06-28T13:36:50.861Z,77.76
2018-06-28T13:38:22.340Z,78.00
2018-06-28T13:41:25.552Z,76.82
2018-06-28T13:46:00.161Z,79.54
2018-06-28T13:47:31.920Z,80.18
2018-06-28T13:49:03.321Z,80.23
2018-06-28T13:50:35.179Z,80.18
2018-06-28T13:53:38.619Z,77.23
2018-06-28T13:55:09.624Z,74.12
2018-06-28T13:59:44.354Z,70.36
2018-06-28T14:01:16.152Z,71.30
2018-06-28T14:05:51.013Z,67.52
2018-06-28T14:07:22.257Z,71.61
2018-06-28T14:10:25.623Z,74.95
2018-06-28T14:11:57.174Z,73.86
2018-06-28T14:13:28.584Z,71.00
2018-06-28T14:15:00.484Z,69.82
2018-06-28T14:16:31.848Z,68.56
2018-06-28T14:22:38.076Z,69.98
2018-06-28T14:24:09.656Z,69.07
2018-06-28T14:25:41.293Z,68.68
2018-06-28T14:27:12.820Z,67.94
2018-06-28T14:28:44.827Z,68.49
2018-06-28T14:30:16.192Z,69.94
2018-06-28T14:31:48.460Z,70.00
2018-06-28T14:33:19.239Z,68.27
2018-06-28T14:36:22.614Z,66.98
2018-06-28T14:37:53.921Z,66.47
2018-06-28T14:39:25.522Z,64.89
2018-06-28T14:42:28.843Z,65.59
2018-06-28T14:44:00.956Z,66.78
2018-06-28T14:45:31.804Z,66.59
2018-06-28T14:47:03.717Z,64.79
2018-06-28T14:48:35.377Z,64.59
2018-06-28T14:50:06.587Z,61.52
2018-06-28T14:51:38.134Z,59.94
2018-06-28T14:56:13.086Z,60.14
2018-06-28T14:57:44.487Z,60.68
2018-06-28T15:00:48.036Z,60.36
2018-06-28T15:02:19.520Z,59.71
2018-06-28T15:03:50.838Z,60.61
2018-06-28T15:05:22.412Z,59.74
2018-06-28T15:06:53.977Z,59.00
2018-06-28T15:08:26.094Z,57.76
2018-06-28T15:11:28.719Z,58.77
2018-06-28T15:13:00.304Z,58.81
2018-06-28T15:14:31.953Z,58.88
2018-06-28T15:17:35.122Z,59.59
2018-06-28T15:20:38.446Z,59.52
2018-06-28T15:22:09.920Z,59.17
2018-06-28T15:23:41.404Z,59.23
2018-06-28T15:25:12.992Z,58.29
2018-06-28T15:29:48.014Z,57.68
2018-06-28T15:31:19.347Z,56.28
2018-06-28T15:32:51.515Z,54.94
2018-06-28T15:34:22.792Z,55.73
2018-06-28T15:35:54.062Z,56.41
2018-06-28T15:38:57.262Z,61.69
2018-06-28T15:40:29.016Z,61.72
2018-06-28T15:42:00.397Z,60.24
2018-06-28T15:43:31.985Z,59.81
2018-06-28T15:45:04.104Z,55.08
2018-06-28T15:46:35.152Z,55.87
2018-06-28T15:48:07.137Z,55.60
2018-06-28T15:49:38.550Z,54.27
2018-06-28T15:51:10.212Z,52.86
2018-06-28T15:52:41.505Z,52.03
2018-06-28T15:55:45.229Z,56.85
2018-06-28T15:58:47.818Z,57.53
2018-06-28T16:00:20.346Z,56.10
2018-06-28T16:03:22.670Z,58.27
2018-06-28T16:04:54.456Z,56.29
2018-06-28T16:06:25.885Z,54.05
2018-06-28T16:07:57.571Z,53.56
2018-06-28T16:09:29.233Z,55.06
2018-06-28T16:11:00.876Z,54.09
2018-06-28T16:12:32.285Z,52.20
2018-06-28T16:14:03.853Z,54.09
2018-06-28T16:15:35.541Z,54.48
2018-06-28T16:17:07.082Z,52.62
2018-06-28T16:20:09.986Z,53.49
2018-06-28T16:21:41.870Z,52.81
2018-06-28T16:23:13.155Z,51.96
2018-06-28T16:26:16.523Z,50.48
2018-06-28T16:27:47.905Z,51.04
2018-06-28T16:29:19.497Z,50.94
2018-06-28T16:30:51.072Z,51.62
2018-06-28T16:32:23.301Z,51.65
2018-06-28T16:33:54.287Z,51.40
2018-06-28T16:35:25.876Z,49.24
2018-06-28T16:38:28.995Z,47.20
2018-06-28T16:40:00.678Z,48.47
2018-06-28T16:44:35.889Z,49.71
2018-06-28T16:46:06.991Z,50.24
2018-06-28T16:47:38.505Z,47.56
2018-06-28T16:49:10.388Z,44.69
2018-06-28T16:50:41.674Z,44.71
2018-06-28T16:52:13.303Z,50.14
2018-06-28T16:55:16.545Z,54.23
2018-06-28T16:56:48.055Z,54.52
2018-06-28T16:58:19.921Z,53.65
2018-06-28T17:01:23.291Z,53.31
2018-06-28T17:02:54.518Z,50.56
2018-06-28T17:04:26.024Z,49.07
2018-06-28T17:05:57.709Z,48.95
2018-06-28T17:07:29.297Z,47.47
2018-06-28T17:09:00.669Z,47.98
2018-06-28T17:10:32.253Z,48.35
2018-06-28T17:12:04.044Z,50.53
2018-06-28T17:13:35.621Z,52.15
2018-06-28T17:15:07.002Z,52.44
2018-06-28T17:16:38.771Z,52.03
2018-06-28T17:18:10.167Z,52.22
2018-06-28T17:19:41.750Z,52.68
2018-06-28T17:21:13.462Z,53.67
2018-06-28T17:22:45.167Z,53.41
2018-06-28T17:24:16.536Z,51.04
2018-06-28T17:25:48.898Z,50.74
2018-06-28T17:27:19.857Z,51.06
2018-06-28T17:28:51.434Z,49.17
2018-06-28T17:30:23.073Z,49.63
2018-06-28T17:31:55.167Z,49.19
2018-06-28T17:33:26.071Z,49.71
2018-06-28T17:34:57.727Z,48.22
2018-06-28T17:36:29.356Z,45.35
2018-06-28T17:38:00.776Z,45.08
2018-06-28T17:39:32.318Z,44.64
2018-06-28T17:41:03.940Z,43.57
2018-06-28T17:42:35.482Z,44.54
2018-06-28T17:44:08.246Z,42.63
2018-06-28T17:45:38.649Z,43.68
2018-06-28T17:47:10.261Z,43.64
2018-06-28T17:48:41.881Z,43.05
2018-06-28T17:51:44.985Z,47.13
2018-06-28T17:53:16.670Z,44.94
2018-06-28T17:54:49.045Z,45.40
2018-06-28T17:56:20.264Z,46.23
2018-06-28T17:57:51.852Z,49.82
2018-06-28T18:00:54.488Z,50.41
2018-06-28T18:02:26.069Z,51.89
2018-06-28T18:03:58.258Z,49.80
2018-06-28T18:05:29.287Z,49.75
2018-06-28T18:07:01.032Z,49.41
2018-06-28T18:08:32.705Z,48.37
2018-06-28T18:10:03.985Z,47.18
2018-06-28T18:11:35.568Z,48.49
2018-06-28T18:13:07.778Z,49.46
2018-06-28T18:14:38.929Z,49.37
2018-06-28T18:17:41.892Z,46.72
2018-06-28T18:20:45.668Z,44.46
2018-06-28T18:22:16.651Z,44.37
2018-06-28T18:23:48.437Z,44.60
2018-06-28T18:25:20.003Z,44.58
2018-06-28T18:26:51.495Z,45.09
2018-06-28T18:28:23.166Z,46.52
2018-06-28T18:29:54.849Z,46.19
2018-06-28T18:31:26.128Z,46.26
2018-06-28T18:32:57.911Z,48.30
2018-06-28T18:37:32.454Z,46.72
2018-06-28T18:39:04.141Z,46.79
2018-06-28T18:42:07.211Z,47.69
2018-06-28T18:43:38.784Z,48.25
2018-06-28T18:45:10.477Z,47.35
2018-06-28T18:46:41.942Z,47.60
2018-06-28T18:49:45.105Z,48.35
2018-06-28T18:51:16.950Z,48.83
2018-06-28T18:54:19.853Z,48.13
2018-06-28T18:55:51.654Z,48.52
2018-06-28T18:57:23.007Z,49.10
2018-06-28T18:58:54.890Z,48.13
2018-06-28T19:00:26.167Z,48.32
2018-06-28T19:01:57.857Z,47.26
2018-06-28T19:05:01.211Z,46.97
2018-06-28T19:06:32.485Z,46.41
2018-06-28T19:08:04.073Z,45.47
2018-06-28T19:09:35.643Z,45.75
2018-06-28T19:12:39.058Z,48.06
2018-06-28T19:14:10.973Z,48.06
2018-06-28T19:15:41.970Z,44.88
2018-06-28T19:21:49.114Z,46.87
2018-06-28T19:24:51.435Z,47.55
2018-06-28T19:26:23.038Z,47.81
2018-06-28T19:27:54.996Z,48.49
2018-06-28T19:30:57.751Z,49.46
2018-06-28T19:32:29.637Z,50.33
2018-06-28T19:37:04.065Z,52.73
2018-06-28T19:38:35.644Z,53.59
2018-06-28T19:40:07.257Z,55.63
2018-06-28T19:41:38.862Z,54.81
2018-06-28T19:43:12.317Z,53.58
2018-06-28T19:44:41.956Z,52.42
2018-06-28T19:46:13.616Z,50.19
2018-06-28T19:47:45.316Z,50.84
2018-06-28T19:49:16.993Z,54.91
2018-06-28T19:55:23.372Z,55.00
2018-06-28T19:56:54.713Z,52.87
2018-06-28T19:58:26.387Z,51.13
2018-06-28T19:59:57.740Z,52.20
2018-06-28T20:01:29.543Z,52.58
2018-06-28T20:03:00.916Z,53.33
2018-06-28T20:04:32.524Z,58.72
2018-06-28T20:06:04.058Z,57.34
2018-06-28T20:07:35.627Z,60.86
2018-06-28T20:09:07.508Z,62.24
2018-06-28T20:10:39.516Z,64.34
2018-06-28T20:12:10.360Z,65.17
2018-06-28T20:13:42.069Z,69.29
2018-06-28T20:15:13.517Z,71.09
2018-06-28T20:16:45.332Z,71.83
2018-06-28T20:18:16.670Z,72.31
2018-06-28T20:19:48.346Z,68.26
2018-06-28T20:21:19.823Z,72.99
2018-06-28T20:22:51.400Z,74.01
2018-06-28T20:24:23.235Z,74.40
2018-06-28T20:25:57.719Z,76.48
2018-06-28T20:28:57.717Z,77.06
2018-06-28T20:30:29.281Z,77.40
2018-06-28T20:35:04.010Z,80.06
2018-06-28T20:36:35.583Z,80.92
2018-06-28T20:39:38.736Z,81.56
2018-06-28T20:41:10.309Z,81.56
2018-06-28T20:42:41.984Z,80.21
2018-06-28T20:44:13.459Z,80.98
2018-06-28T20:45:45.237Z,80.75
2018-06-28T20:47:16.609Z,81.56
2018-06-28T20:50:20.290Z,82.96
2018-06-28T20:51:51.332Z,84.69
2018-06-28T20:53:22.912Z,84.11
2018-06-28T20:54:54.483Z,84.26
2018-06-28T20:56:26.063Z,83.01
2018-06-28T20:57:57.630Z,82.43
2018-06-28T20:59:29.204Z,82.43
2018-06-28T21:01:00.780Z,83.01
2018-06-28T21:02:32.456Z,83.11
2018-06-28T21:04:03.935Z,83.59
2018-06-28T21:05:35.501Z,83.20
2018-06-28T21:07:07.075Z,80.80
2018-06-28T21:08:38.648Z,81.86
2018-06-28T21:10:10.224Z,81.67
2018-06-28T21:11:41.799Z,81.76
2018-06-28T21:13:13.375Z,82.59
2018-06-28T21:14:44.943Z,82.49
2018-06-28T21:16:16.517Z,83.07
2018-06-28T21:17:48.090Z,82.59
2018-06-28T21:19:19.664Z,81.43
2018-06-28T21:20:51.337Z,81.82
2018-06-28T21:22:22.830Z,80.66
2018-06-28T21:23:54.384Z,79.90
2018-06-28T21:25:25.958Z,80.28
2018-06-28T21:26:57.531Z,78.75
2018-06-28T21:28:29.105Z,79.22
2018-06-28T21:30:00.677Z,81.34
2018-06-28T21:31:32.259Z,81.82
2018-06-28T21:33:03.842Z,82.59
2018-06-28T21:34:35.460Z,81.15
2018-06-28T21:36:06.971Z,81.05
2018-06-28T21:37:38.544Z,83.31
2018-06-28T21:39:10.217Z,85.14
2018-06-28T21:40:41.689Z,84.95
2018-06-28T21:42:13.263Z,83.80
2018-06-28T21:43:44.836Z,84.47
2018-06-28T21:45:16.409Z,85.42
2018-06-28T21:46:47.982Z,86.00